createdAt,value
2018-09-04T00:02:58.621Z,304
2018-09-04T00:08:06.354Z,304.3
2018-09-04T00:13:13.783Z,303.9
2018-09-04T00:18:21.384Z,303.8
2018-09-04T00:23:28.990Z,304
2018-09-04T00:33:44.177Z,302.8
2018-09-04T00:49:07.173Z,303.7
2018-09-04T00:54:14.703Z,303.6
2018-09-04T00:59:22.388Z,302.9
2018-09-04T01:04:30.051Z,303.1
2018-09-04T01:09:37.716Z,303.4
2018-09-04T01:14:46.937Z,303.9
2018-09-04T01:19:53.062Z,303.8
2018-09-04T01:25:00.779Z,304
2018-09-04T01:30:08.469Z,304
2018-09-04T01:35:16.082Z,303.7
2018-09-04T01:40:23.793Z,303.7
2018-09-04T01:45:32.069Z,304
2018-09-04T01:55:46.876Z,303.9
2018-09-04T02:00:54.591Z,303.8
2018-09-04T02:06:02.306Z,303.9
2018-09-04T02:11:10.015Z,303.8
2018-09-04T02:16:17.695Z,304
2018-09-04T02:26:33.036Z,303.5
2018-09-04T02:31:40.799Z,303.9
2018-09-04T02:36:49.511Z,303.8
2018-09-04T02:41:56.123Z,303.7
2018-09-04T02:47:03.836Z,303.7
2018-09-04T02:52:11.557Z,303.8
2018-09-04T02:57:19.100Z,303.6
2018-09-04T03:02:26.776Z,303.8
2018-09-04T03:07:34.432Z,303.7
2018-09-04T03:12:42.083Z,303.5
2018-09-04T03:17:49.751Z,304.1
2018-09-04T03:22:57.439Z,304
2018-09-04T03:28:05.120Z,304
2018-09-04T03:33:12.891Z,303.9
2018-09-04T03:38:20.462Z,304.1
2018-09-04T03:43:28.217Z,303.7
2018-09-04T03:48:35.784Z,303.9
2018-09-04T03:53:43.467Z,303.9
2018-09-04T03:58:51.240Z,303.9
2018-09-04T04:19:21.771Z,304
2018-09-04T04:24:29.420Z,304
2018-09-04T04:29:37.092Z,303.7
2018-09-04T04:39:52.405Z,304.1
2018-09-04T04:45:00.067Z,303.7
2018-09-04T05:00:23.067Z,304
2018-09-04T05:05:30.611Z,303.7
2018-09-04T05:10:38.236Z,303.9
2018-09-04T05:15:45.953Z,303.9
2018-09-04T05:20:53.479Z,303.9
2018-09-04T05:26:01.088Z,303.9
2018-09-04T05:41:23.974Z,303.7
2018-09-04T05:51:39.184Z,303.9
2018-09-04T06:01:54.461Z,303.8
2018-09-04T06:07:02.078Z,304
2018-09-04T06:22:24.728Z,304.4
2018-09-04T06:27:32.254Z,304.6
2018-09-04T06:37:47.332Z,304.5
2018-09-04T06:42:55.094Z,304.5
2018-09-04T06:48:02.403Z,304.3
2018-09-04T07:03:24.785Z,304.7
2018-09-04T07:08:32.324Z,304.4
2018-09-04T07:23:54.802Z,305.6
2018-09-04T07:39:16.739Z,305.2
2018-09-04T07:44:24.079Z,304.9
2018-09-04T07:49:31.843Z,305.2
2018-09-04T07:59:46.212Z,305.2
2018-09-04T08:10:00.963Z,305.1
2018-09-04T08:25:22.763Z,305.6
2018-09-04T08:30:30.069Z,304.7
2018-09-04T08:40:44.405Z,304.2
2018-09-04T08:45:51.661Z,304.7
2018-09-04T08:50:58.568Z,305
2018-09-04T09:01:12.532Z,304.9
2018-09-04T09:06:19.423Z,304.1
2018-09-04T09:11:26.275Z,304.1
2018-09-04T09:21:39.885Z,304.1
2018-09-04T09:26:46.656Z,303.9
2018-09-04T09:31:53.404Z,303.8
2018-09-04T09:42:07.362Z,303.8
2018-09-04T09:47:13.882Z,303.9
2018-09-04T09:52:20.546Z,303.5
2018-09-04T10:02:34.208Z,303.8
2018-09-04T10:07:40.815Z,302.9
2018-09-04T10:12:47.505Z,302.4
2018-09-04T10:17:54.233Z,302.4
2018-09-04T10:23:00.909Z,302.4
2018-09-04T10:28:07.394Z,302.5
2018-09-04T10:33:13.995Z,303
2018-09-04T10:38:20.670Z,302.8
2018-09-04T10:48:33.820Z,302.8
2018-09-04T10:58:46.939Z,302.5
2018-09-04T11:03:56.583Z,302.7
2018-09-04T11:08:59.885Z,302.6
2018-09-04T11:14:06.393Z,302.3
2018-09-04T11:19:12.644Z,302.8
2018-09-04T11:24:19.083Z,302.8
2018-09-04T11:29:25.425Z,302.7
2018-09-04T11:34:31.729Z,303
2018-09-04T11:39:38.046Z,302.9
2018-09-04T11:44:44.510Z,302.6
2018-09-04T11:49:50.590Z,302.4
2018-09-04T11:54:56.942Z,302.1
2018-09-04T12:00:03.175Z,302.2
2018-09-04T12:05:09.384Z,302.1
2018-09-04T12:10:15.744Z,302.2
2018-09-04T12:15:21.875Z,302.3
2018-09-04T12:20:28.122Z,302.4
2018-09-04T12:30:40.573Z,302.3
2018-09-04T12:40:53.067Z,302.2
2018-09-04T12:45:59.469Z,301.8
2018-09-04T12:51:05.827Z,301.7
2018-09-04T12:56:12.216Z,301.4
2018-09-04T13:01:18.727Z,301.8
2018-09-04T13:06:24.871Z,301.7
2018-09-04T13:11:31.348Z,301.8
2018-09-04T13:16:37.655Z,301.7
2018-09-04T13:26:50.391Z,302
2018-09-04T13:31:56.797Z,301.8
2018-09-04T13:37:03.225Z,302.1
2018-09-04T13:52:22.632Z,301.7
2018-09-04T13:57:29.001Z,301.6
2018-09-04T14:02:35.524Z,301.8
2018-09-04T14:07:42.119Z,301.6
2018-09-04T14:12:48.766Z,301.9
2018-09-04T14:23:01.857Z,301.8
2018-09-04T14:28:08.459Z,301.7
2018-09-04T14:33:15.072Z,301.8
2018-09-04T14:38:21.734Z,301.6
2018-09-04T14:43:29.072Z,301.6
2018-09-04T14:48:35.056Z,301.2
2018-09-04T14:53:41.665Z,301.2
2018-09-04T14:58:48.339Z,301.3
2018-09-04T15:03:55.064Z,302.1
2018-09-04T15:14:08.667Z,302.1
2018-09-04T15:19:15.585Z,301.6
2018-09-04T15:29:29.290Z,301.9
2018-09-04T15:34:36.248Z,302.2
2018-09-04T15:55:04.340Z,302
2018-09-04T16:05:18.603Z,302.1
2018-09-04T16:10:25.484Z,302.4
2018-09-04T16:15:32.627Z,302.4
2018-09-04T16:20:39.626Z,302.7
2018-09-04T16:36:00.895Z,302.7
2018-09-04T16:41:07.983Z,302.8
2018-09-04T16:56:29.470Z,302.6
2018-09-04T17:01:36.444Z,302.9
2018-09-04T17:06:43.560Z,302.8
2018-09-04T17:16:57.810Z,302.6
2018-09-04T17:22:05.062Z,302.7
2018-09-04T17:32:19.216Z,302.6
2018-09-04T17:37:26.381Z,302.5
2018-09-04T17:52:48.136Z,302.6
2018-09-04T17:57:55.017Z,302.6
2018-09-04T18:03:02.183Z,302.2
2018-09-04T18:08:09.354Z,302
2018-09-04T18:18:23.768Z,301.9
2018-09-04T18:23:32.661Z,302
2018-09-04T18:33:45.432Z,301.8
2018-09-04T18:38:52.681Z,302.2
2018-09-04T18:44:00.332Z,301.9
2018-09-04T18:49:07.202Z,301.9
2018-09-04T18:54:14.418Z,301.8
2018-09-04T18:59:21.748Z,301.9
2018-09-04T19:04:29.059Z,301.9
2018-09-04T19:09:36.346Z,302.3
2018-09-04T19:14:43.781Z,304
2018-09-04T19:19:51.104Z,301.7
2018-09-04T19:30:05.726Z,301.5
2018-09-04T19:35:13.107Z,301.6
2018-09-04T19:40:20.501Z,301.6
2018-09-04T19:45:27.923Z,301.5
2018-09-04T19:50:35.329Z,301.6
2018-09-04T19:55:42.763Z,301.8
2018-09-04T20:00:50.152Z,301.5
2018-09-04T20:05:57.835Z,301.5
2018-09-04T20:11:04.996Z,301.5
2018-09-04T20:16:12.416Z,301.6
2018-09-04T20:21:19.875Z,301.5
2018-09-04T20:26:27.311Z,301.5
2018-09-04T20:31:34.874Z,301.4
2018-09-04T20:36:42.248Z,301.6
2018-09-04T20:41:49.857Z,301.6
2018-09-04T20:46:57.179Z,301.5
2018-09-04T20:52:04.726Z,301.7
2018-09-04T21:02:19.681Z,301.6
2018-09-04T21:12:34.710Z,301.7
2018-09-04T21:17:42.202Z,301.6
2018-09-04T21:22:49.685Z,301.6
2018-09-04T21:27:57.200Z,301.8
2018-09-04T21:33:04.694Z,302
2018-09-04T21:38:12.195Z,301.7
2018-09-04T21:43:19.711Z,301.8
2018-09-04T21:48:27.237Z,301.5
2018-09-04T21:53:34.720Z,301.8
2018-09-04T21:58:44.213Z,301.6
2018-09-04T22:03:49.814Z,301.7
2018-09-04T22:08:57.300Z,301.5
2018-09-04T22:14:04.876Z,301.7
2018-09-04T22:24:19.943Z,303.3
2018-09-04T22:29:27.467Z,301.5
2018-09-04T22:34:35.048Z,301.8
2018-09-04T22:39:42.617Z,301.8
2018-09-04T22:44:50.204Z,301.9
2018-09-04T22:49:57.729Z,301.8
2018-09-04T22:55:05.288Z,301.8
2018-09-04T23:00:12.872Z,301.8
2018-09-04T23:05:20.640Z,302.2
2018-09-04T23:10:28.088Z,301.9
2018-09-04T23:15:35.693Z,301.8
2018-09-04T23:20:43.343Z,301.7
2018-09-04T23:25:50.927Z,301.8
2018-09-04T23:30:58.547Z,301.8
2018-09-04T23:36:06.330Z,301.7
2018-09-04T23:41:13.792Z,301.7
2018-09-04T23:46:21.440Z,301.7
2018-09-04T23:51:29.102Z,301.7
2018-09-04T23:56:36.980Z,301.6
